Wetterdaten: Woche 01.11.10 - 07.11.10 (KW44)
Datum Zeit Temperatur Luftfeuchte Luftdruck Niederschlag Windrichtung Sonnenschein Solar Wind
01.11.2010 00:00 7,5 C 93 % 1000,7 hPa 0,0 l/m N 0,00 h 0 W/m 1,3 km/h (1 Bft)
01.11.2010 01:00 6,9 C 93 % 1000,8 hPa 0,0 l/m N 0,00 h 0 W/m 3,3 km/h (1 Bft)
01.11.2010 02:00 6,8 C 96 % 1001,1 hPa 0,0 l/m N 0,00 h 0 W/m 7,1 km/h (2 Bft)
01.11.2010 03:00 6,9 C 96 % 1001,5 hPa 0,0 l/m N-NW 0,00 h 0 W/m 4,3 km/h (1 Bft)
01.11.2010 04:00 7,0 C 96 % 1002,2 hPa 0,0 l/m N-NW 0,00 h 0 W/m 3,6 km/h (1 Bft)
01.11.2010 05:00 7,3 C 96 % 1002,9 hPa 0,0 l/m N 0,00 h 0 W/m 1,7 km/h (1 Bft)
01.11.2010 06:00 7,3 C 96 % 1003,4 hPa 0,0 l/m N 0,00 h 0 W/m 0,8 km/h (0 Bft)
01.11.2010 07:00 7,3 C 96 % 1004,3 hPa 0,0 l/m N 0,00 h 17 W/m 0,4 km/h (0 Bft)
01.11.2010 08:00 7,6 C 96 % 1005,6 hPa 0,0 l/m N 0,00 h 70 W/m 1,2 km/h (1 Bft)
01.11.2010 09:00 8,5 C 95 % 1006,2 hPa 0,0 l/m N 0,00 h 108 W/m 1,9 km/h (1 Bft)
01.11.2010 10:00 9,9 C 90 % 1006,4 hPa 0,0 l/m N 0,00 h 143 W/m 0,4 km/h (0 Bft)
01.11.2010 11:00 10,6 C 88 % 1006,5 hPa 0,0 l/m S 0,00 h 166 W/m 4,0 km/h (1 Bft)
01.11.2010 12:00 11,5 C 86 % 1006,3 hPa 0,0 l/m S-SW 0,00 h 218 W/m 4,3 km/h (1 Bft)
01.11.2010 13:00 13,0 C 81 % 1006,3 hPa 0,0 l/m S-SW 0,75 h 288 W/m 3,9 km/h (1 Bft)
01.11.2010 14:00 13,3 C 80 % 1006,5 hPa 0,0 l/m NW 0,25 h 157 W/m 3,5 km/h (1 Bft)
01.11.2010 15:00 13,6 C 77 % 1006,9 hPa 0,0 l/m N 0,42 h 115 W/m 2,4 km/h (1 Bft)
01.11.2010 16:00 12,9 C 82 % 1007,3 hPa 0,0 l/m N 0,50 h 42 W/m 1,2 km/h (1 Bft)
01.11.2010 17:00 10,9 C 88 % 1008,1 hPa 0,0 l/m N 0,00 h 6 W/m 1,1 km/h (0 Bft)
01.11.2010 18:00 9,7 C 90 % 1009,2 hPa 0,0 l/m NW 0,00 h 0 W/m 3,1 km/h (1 Bft)
01.11.2010 19:00 8,7 C 91 % 1009,7 hPa 0,0 l/m NW 0,00 h 0 W/m 1,9 km/h (1 Bft)
01.11.2010 20:00 7,7 C 92 % 1010,3 hPa 0,0 l/m N 0,00 h 0 W/m 1,1 km/h (0 Bft)
01.11.2010 21:00 6,8 C 92 % 1011,0 hPa 0,0 l/m N 0,00 h 0 W/m 0,4 km/h (0 Bft)
01.11.2010 22:00 5,9 C 93 % 1011,3 hPa 0,0 l/m N 0,00 h 0 W/m 0,7 km/h (0 Bft)
01.11.2010 23:00 5,3 C 94 % 1011,4 hPa 0,0 l/m N 0,00 h 0 W/m 1,2 km/h (1 Bft)
02.11.2010 00:00 4,6 C 94 % 1011,7 hPa 0,0 l/m N 0,00 h 0 W/m 1,2 km/h (1 Bft)
02.11.2010 01:00 4,2 C 95 % 1012,1 hPa 0,0 l/m N 0,00 h 0 W/m 1,5 km/h (1 Bft)
02.11.2010 02:00 4,2 C 96 % 1012,4 hPa 0,0 l/m N 0,00 h 0 W/m 2,0 km/h (1 Bft)
02.11.2010 03:00 3,6 C 95 % 1012,5 hPa 0,0 l/m N 0,00 h 0 W/m 0,0 km/h (0 Bft)
02.11.2010 04:00 3,7 C 96 % 1012,9 hPa 0,0 l/m N 0,00 h 0 W/m 0,3 km/h (0 Bft)
02.11.2010 05:00 4,3 C 97 % 1013,3 hPa 0,0 l/m N 0,00 h 0 W/m 0,0 km/h (0 Bft)
02.11.2010 06:00 5,2 C 98 % 1013,9 hPa 0,0 l/m W-NW 0,00 h 0 W/m 3,5 km/h (1 Bft)
02.11.2010 07:00 5,4 C 98 % 1014,8 hPa 0,0 l/m N 0,00 h 16 W/m 0,4 km/h (0 Bft)
02.11.2010 08:00 5,9 C 98 % 1015,4 hPa 0,0 l/m N 0,00 h 32 W/m 0,9 km/h (0 Bft)
02.11.2010 09:00 7,2 C 98 % 1016,0 hPa 0,0 l/m S 0,00 h 54 W/m 2,4 km/h (1 Bft)
02.11.2010 10:00 8,4 C 95 % 1016,1 hPa 0,0 l/m N 0,00 h 82 W/m 1,3 km/h (1 Bft)
02.11.2010 11:00 9,1 C 90 % 1016,3 hPa 0,0 l/m W-NW 0,00 h 99 W/m 5,6 km/h (1 Bft)
02.11.2010 12:00 9,3 C 88 % 1016,4 hPa 0,0 l/m W-NW 0,00 h 72 W/m 6,0 km/h (2 Bft)
02.11.2010 13:00 9,3 C 86 % 1016,2 hPa 0,0 l/m N-NW 0,00 h 76 W/m 8,2 km/h (2 Bft)
02.11.2010 14:00 9,3 C 86 % 1016,3 hPa 0,0 l/m NW 0,00 h 53 W/m 8,9 km/h (2 Bft)
02.11.2010 15:00 9,2 C 87 % 1016,4 hPa 0,0 l/m N-NW 0,00 h 46 W/m 3,6 km/h (1 Bft)
02.11.2010 16:00 9,2 C 87 % 1016,8 hPa 0,0 l/m S-SW 0,00 h 17 W/m 3,5 km/h (1 Bft)
02.11.2010 17:00 8,9 C 88 % 1017,7 hPa 0,0 l/m W 0,00 h 0 W/m 3,7 km/h (1 Bft)
02.11.2010 18:00 8,5 C 88 % 1018,3 hPa 0,0 l/m N 0,00 h 0 W/m 1,6 km/h (1 Bft)
02.11.2010 19:00 8,2 C 90 % 1018,5 hPa 0,0 l/m N 0,00 h 0 W/m 1,6 km/h (1 Bft)
02.11.2010 20:00 8,0 C 92 % 1018,5 hPa 0,0 l/m NW 0,00 h 0 W/m 3,5 km/h (1 Bft)
02.11.2010 21:00 7,7 C 93 % 1018,4 hPa 0,0 l/m SW 0,00 h 0 W/m 4,8 km/h (1 Bft)
02.11.2010 22:00 7,5 C 94 % 1018,3 hPa 0,0 l/m SW 0,00 h 0 W/m 5,3 km/h (1 Bft)
02.11.2010 23:00 6,8 C 94 % 1018,0 hPa 0,0 l/m SW 0,00 h 0 W/m 4,4 km/h (1 Bft)
03.11.2010 00:00 6,2 C 94 % 1018,0 hPa 0,0 l/m SW 0,00 h 0 W/m 1,6 km/h (1 Bft)
03.11.2010 01:00 5,1 C 94 % 1018,2 hPa 0,0 l/m N 0,00 h 0 W/m 2,0 km/h (1 Bft)
03.11.2010 02:00 4,3 C 95 % 1018,1 hPa 0,0 l/m N 0,00 h 0 W/m 0,0 km/h (0 Bft)
03.11.2010 03:00 4,1 C 96 % 1017,9 hPa 0,0 l/m O-SO 0,00 h 0 W/m 2,5 km/h (1 Bft)
03.11.2010 04:00 4,5 C 97 % 1018,2 hPa 0,0 l/m O-SO 0,00 h 0 W/m 2,9 km/h (1 Bft)
03.11.2010 05:00 5,3 C 98 % 1018,0 hPa 0,0 l/m SW 0,00 h 0 W/m 9,4 km/h (2 Bft)
03.11.2010 06:00 5,8 C 98 % 1018,4 hPa 0,0 l/m SW 0,00 h 0 W/m 7,2 km/h (2 Bft)
03.11.2010 07:00 5,9 C 98 % 1018,9 hPa 0,0 l/m S-SW 0,08 h 21 W/m 7,6 km/h (2 Bft)
03.11.2010 08:00 6,9 C 98 % 1019,4 hPa 0,0 l/m SW 0,00 h 56 W/m 10,5 km/h (2 Bft)
03.11.2010 09:00 8,4 C 96 % 1019,4 hPa 0,0 l/m S-SW 0,00 h 123 W/m 15,0 km/h (3 Bft)
03.11.2010 10:00 9,8 C 87 % 1019,6 hPa 0,0 l/m W-SW 0,17 h 170 W/m 19,0 km/h (3 Bft)
03.11.2010 11:00 10,5 C 85 % 1019,3 hPa 0,0 l/m SW 0,08 h 161 W/m 18,1 km/h (3 Bft)
03.11.2010 12:00 11,5 C 82 % 1019,2 hPa 0,0 l/m W-SW 0,42 h 260 W/m 24,0 km/h (4 Bft)
03.11.2010 13:00 11,6 C 82 % 1019,0 hPa 0,0 l/m W-SW 0,00 h 164 W/m 24,1 km/h (4 Bft)
03.11.2010 14:00 11,8 C 81 % 1019,1 hPa 0,0 l/m W-SW 0,00 h 91 W/m 14,4 km/h (3 Bft)
03.11.2010 15:00 12,1 C 79 % 1019,4 hPa 0,0 l/m SW 0,00 h 73 W/m 20,2 km/h (4 Bft)
03.11.2010 16:00 12,0 C 78 % 1019,9 hPa 0,0 l/m W 0,00 h 24 W/m 15,6 km/h (3 Bft)
03.11.2010 17:00 11,4 C 80 % 1020,7 hPa 0,0 l/m SW 0,00 h 0 W/m 9,4 km/h (2 Bft)
03.11.2010 18:00 10,8 C 84 % 1021,6 hPa 0,0 l/m SW 0,00 h 0 W/m 10,3 km/h (2 Bft)
03.11.2010 19:00 10,4 C 87 % 1022,3 hPa 0,0 l/m SW 0,00 h 0 W/m 11,0 km/h (2 Bft)
03.11.2010 20:00 9,9 C 89 % 1022,5 hPa 0,0 l/m W-SW 0,00 h 0 W/m 12,1 km/h (2 Bft)
03.11.2010 21:00 9,7 C 90 % 1023,1 hPa 0,0 l/m SW 0,00 h 0 W/m 12,1 km/h (2 Bft)
03.11.2010 22:00 10,2 C 89 % 1023,1 hPa 0,0 l/m W-SW 0,00 h 0 W/m 17,0 km/h (3 Bft)
03.11.2010 23:00 10,7 C 88 % 1023,4 hPa 0,0 l/m W-SW 0,00 h 0 W/m 22,0 km/h (4 Bft)
04.11.2010 00:00 10,9 C 88 % 1023,9 hPa 0,0 l/m W-SW 0,00 h 0 W/m 18,1 km/h (3 Bft)
04.11.2010 01:00 11,1 C 88 % 1024,1 hPa 0,0 l/m W-SW 0,00 h 0 W/m 14,4 km/h (3 Bft)
04.11.2010 02:00 11,1 C 88 % 1024,4 hPa 0,0 l/m SW 0,00 h 0 W/m 13,4 km/h (3 Bft)
04.11.2010 03:00 11,0 C 88 % 1024,8 hPa 0,0 l/m SW 0,00 h 0 W/m 12,2 km/h (2 Bft)
04.11.2010 04:00 10,9 C 89 % 1025,0 hPa 0,0 l/m W-SW 0,00 h 0 W/m 16,1 km/h (3 Bft)
04.11.2010 05:00 10,8 C 88 % 1025,2 hPa 0,0 l/m SW 0,00 h 0 W/m 15,2 km/h (3 Bft)
04.11.2010 06:00 11,1 C 88 % 1025,5 hPa 0,0 l/m SW 0,00 h 0 W/m 19,8 km/h (4 Bft)
04.11.2010 07:00 11,4 C 86 % 1026,0 hPa 0,0 l/m SW 0,00 h 20 W/m 18,8 km/h (3 Bft)
04.11.2010 08:00 11,9 C 85 % 1026,6 hPa 0,0 l/m SW 0,00 h 66 W/m 20,4 km/h (4 Bft)
04.11.2010 09:00 12,7 C 82 % 1026,8 hPa 0,0 l/m W-SW 0,00 h 97 W/m 22,0 km/h (4 Bft)
04.11.2010 10:00 13,4 C 80 % 1027,1 hPa 0,0 l/m SW 0,17 h 180 W/m 26,1 km/h (4 Bft)
04.11.2010 11:00 14,6 C 77 % 1027,1 hPa 0,0 l/m SW 0,67 h 276 W/m 26,6 km/h (4 Bft)
04.11.2010 12:00 15,2 C 75 % 1026,6 hPa 0,0 l/m SW 0,75 h 341 W/m 27,0 km/h (4 Bft)
04.11.2010 13:00 15,6 C 75 % 1026,0 hPa 0,0 l/m W-SW 0,67 h 254 W/m 25,9 km/h (4 Bft)
04.11.2010 14:00 15,9 C 73 % 1026,0 hPa 0,0 l/m W-SW 0,33 h 174 W/m 24,8 km/h (4 Bft)
04.11.2010 15:00 15,4 C 75 % 1025,8 hPa 0,0 l/m W-SW 0,00 h 69 W/m 23,1 km/h (4 Bft)
04.11.2010 16:00 15,2 C 77 % 1025,6 hPa 0,0 l/m W-SW 0,00 h 29 W/m 22,0 km/h (4 Bft)
04.11.2010 17:00 14,4 C 80 % 1026,0 hPa 0,0 l/m W 0,00 h 7 W/m 19,3 km/h (3 Bft)
04.11.2010 18:00 14,0 C 82 % 1026,4 hPa 0,0 l/m W-SW 0,00 h 0 W/m 16,1 km/h (3 Bft)
04.11.2010 19:00 13,4 C 84 % 1026,7 hPa 0,0 l/m SW 0,00 h 0 W/m 13,2 km/h (3 Bft)
04.11.2010 20:00 12,2 C 89 % 1026,7 hPa 0,0 l/m W-SW 0,00 h 0 W/m 12,6 km/h (3 Bft)
04.11.2010 21:00 12,3 C 89 % 1027,0 hPa 0,0 l/m W 0,00 h 0 W/m 12,6 km/h (3 Bft)
04.11.2010 22:00 12,1 C 90 % 1027,0 hPa 0,0 l/m W-SW 0,00 h 0 W/m 12,0 km/h (2 Bft)
04.11.2010 23:00 12,1 C 90 % 1026,9 hPa 0,0 l/m W-SW 0,00 h 0 W/m 12,6 km/h (3 Bft)
05.11.2010 00:00 11,8 C 91 % 1026,6 hPa 0,0 l/m W 0,00 h 0 W/m 12,3 km/h (3 Bft)
05.11.2010 01:00 11,6 C 91 % 1026,3 hPa 0,0 l/m S-SW 0,00 h 0 W/m 12,1 km/h (2 Bft)
05.11.2010 02:00 10,7 C 95 % 1026,2 hPa 0,0 l/m S-SW 0,00 h 0 W/m 10,6 km/h (2 Bft)
05.11.2010 03:00 12,1 C 93 % 1025,8 hPa 0,0 l/m W-SW 0,00 h 0 W/m 22,1 km/h (4 Bft)
05.11.2010 04:00 13,0 C 88 % 1025,7 hPa 0,0 l/m S-SW 0,00 h 0 W/m 20,9 km/h (4 Bft)
05.11.2010 05:00 13,0 C 87 % 1025,6 hPa 0,0 l/m SW 0,00 h 0 W/m 23,6 km/h (4 Bft)
05.11.2010 06:00 12,4 C 88 % 1025,3 hPa 0,0 l/m SW 0,00 h 0 W/m 23,8 km/h (4 Bft)
05.11.2010 07:00 12,1 C 89 % 1025,6 hPa 0,0 l/m SW 0,00 h 19 W/m 18,8 km/h (3 Bft)
05.11.2010 08:00 12,3 C 89 % 1025,8 hPa 0,0 l/m SW 0,00 h 71 W/m 20,1 km/h (4 Bft)
05.11.2010 09:00 13,3 C 86 % 1026,0 hPa 0,0 l/m W-SW 0,00 h 96 W/m 20,4 km/h (4 Bft)
05.11.2010 10:00 14,4 C 81 % 1026,2 hPa 0,0 l/m W 0,42 h 257 W/m 23,3 km/h (4 Bft)
05.11.2010 11:00 14,8 C 80 % 1026,1 hPa 0,0 l/m W-SW 0,50 h 255 W/m 24,7 km/h (4 Bft)
05.11.2010 12:00 14,9 C 78 % 1025,5 hPa 0,0 l/m W-SW 0,75 h 349 W/m 24,7 km/h (4 Bft)
05.11.2010 13:00 14,7 C 79 % 1024,9 hPa 0,0 l/m SW 0,17 h 182 W/m 26,1 km/h (4 Bft)
05.11.2010 14:00 14,4 C 79 % 1024,4 hPa 0,0 l/m W-SW 0,00 h 113 W/m 24,5 km/h (4 Bft)
05.11.2010 15:00 14,0 C 80 % 1024,1 hPa 0,0 l/m SW 0,00 h 82 W/m 23,1 km/h (4 Bft)
05.11.2010 16:00 13,5 C 81 % 1023,9 hPa 0,0 l/m W-SW 0,00 h 14 W/m 17,3 km/h (3 Bft)
05.11.2010 17:00 12,6 C 82 % 1024,0 hPa 0,0 l/m W-SW 0,00 h 0 W/m 7,8 km/h (2 Bft)
05.11.2010 18:00 11,1 C 84 % 1024,2 hPa 0,0 l/m N 0,00 h 0 W/m 2,5 km/h (1 Bft)
05.11.2010 19:00 9,6 C 88 % 1024,3 hPa 0,0 l/m N 0,00 h 0 W/m 2,8 km/h (1 Bft)
05.11.2010 20:00 8,7 C 92 % 1024,0 hPa 0,0 l/m N 0,00 h 0 W/m 2,9 km/h (1 Bft)
05.11.2010 21:00 8,4 C 93 % 1024,0 hPa 0,0 l/m N 0,00 h 0 W/m 0,0 km/h (0 Bft)
05.11.2010 22:00 8,5 C 95 % 1023,3 hPa 0,0 l/m N 0,00 h 0 W/m 1,6 km/h (1 Bft)
05.11.2010 23:00 8,4 C 96 % 1022,7 hPa 0,0 l/m N 0,00 h 0 W/m 0,8 km/h (0 Bft)
06.11.2010 00:00 8,4 C 97 % 1021,7 hPa 0,0 l/m N 0,00 h 0 W/m 2,3 km/h (1 Bft)
06.11.2010 01:00 8,7 C 97 % 1021,0 hPa 0,0 l/m W-SW 0,00 h 0 W/m 6,8 km/h (2 Bft)
06.11.2010 02:00 9,8 C 95 % 1020,7 hPa 0,0 l/m SW 0,00 h 0 W/m 12,8 km/h (3 Bft)
06.11.2010 03:00 10,9 C 88 % 1020,0 hPa 0,0 l/m W-SW 0,00 h 0 W/m 14,0 km/h (3 Bft)
06.11.2010 04:00 11,0 C 84 % 1019,8 hPa 0,0 l/m W-SW 0,00 h 0 W/m 14,4 km/h (3 Bft)
06.11.2010 05:00 10,7 C 83 % 1019,5 hPa 0,0 l/m W-SW 0,00 h 0 W/m 12,8 km/h (3 Bft)
06.11.2010 06:00 10,3 C 85 % 1019,1 hPa 0,0 l/m W-SW 0,00 h 0 W/m 11,8 km/h (2 Bft)
06.11.2010 07:00 9,9 C 89 % 1018,6 hPa 0,0 l/m W-SW 0,00 h 12 W/m 13,7 km/h (3 Bft)
06.11.2010 08:00 10,7 C 87 % 1018,4 hPa 0,0 l/m W-SW 0,00 h 45 W/m 21,2 km/h (4 Bft)
06.11.2010 09:00 11,2 C 85 % 1017,9 hPa 0,0 l/m W-SW 0,00 h 104 W/m 22,4 km/h (4 Bft)
06.11.2010 10:00 11,6 C 83 % 1017,4 hPa 0,0 l/m W-SW 0,00 h 100 W/m 26,1 km/h (4 Bft)
06.11.2010 11:00 12,2 C 81 % 1016,6 hPa 0,0 l/m W-SW 0,08 h 194 W/m 27,4 km/h (4 Bft)
06.11.2010 12:00 12,7 C 78 % 1015,9 hPa 0,0 l/m W-SW 0,00 h 129 W/m 21,7 km/h (4 Bft)
06.11.2010 13:00 13,2 C 74 % 1014,8 hPa 0,0 l/m W 0,00 h 156 W/m 22,8 km/h (4 Bft)
06.11.2010 14:00 13,3 C 69 % 1014,3 hPa 0,0 l/m W 0,00 h 118 W/m 26,8 km/h (4 Bft)
06.11.2010 15:00 12,9 C 69 % 1013,5 hPa 0,0 l/m W 0,00 h 63 W/m 24,1 km/h (4 Bft)
06.11.2010 16:00 12,2 C 71 % 1012,9 hPa 0,0 l/m W 0,00 h 22 W/m 21,8 km/h (4 Bft)
06.11.2010 17:00 11,7 C 73 % 1012,6 hPa 0,0 l/m W 0,00 h 0 W/m 17,2 km/h (3 Bft)
06.11.2010 18:00 11,1 C 74 % 1012,5 hPa 0,0 l/m W-SW 0,00 h 0 W/m 15,6 km/h (3 Bft)
06.11.2010 19:00 10,7 C 75 % 1011,9 hPa 0,0 l/m SW 0,00 h 0 W/m 11,9 km/h (2 Bft)
06.11.2010 20:00 10,1 C 79 % 1011,2 hPa 0,0 l/m SW 0,00 h 0 W/m 6,4 km/h (2 Bft)
06.11.2010 21:00 9,2 C 83 % 1010,5 hPa 0,0 l/m SW 0,00 h 0 W/m 3,6 km/h (1 Bft)
06.11.2010 22:00 9,1 C 87 % 1009,5 hPa 0,0 l/m SW 0,00 h 0 W/m 8,4 km/h (2 Bft)
06.11.2010 23:00 10,1 C 83 % 1008,5 hPa 0,0 l/m SW 0,00 h 0 W/m 14,8 km/h (3 Bft)
07.11.2010 00:00 10,0 C 84 % 1007,7 hPa 0,0 l/m SW 0,00 h 0 W/m 9,9 km/h (2 Bft)
07.11.2010 01:00 9,7 C 86 % 1006,3 hPa 0,0 l/m SW 0,00 h 0 W/m 9,5 km/h (2 Bft)
07.11.2010 02:00 9,6 C 87 % 1005,0 hPa 0,0 l/m SW 0,00 h 0 W/m 12,1 km/h (2 Bft)
07.11.2010 03:00 9,4 C 88 % 1003,7 hPa 0,0 l/m SW 0,00 h 0 W/m 12,1 km/h (2 Bft)
07.11.2010 04:00 9,6 C 87 % 1002,6 hPa 0,0 l/m SW 0,00 h 0 W/m 11,4 km/h (2 Bft)
07.11.2010 05:00 9,5 C 87 % 1001,8 hPa 0,0 l/m SW 0,00 h 0 W/m 12,1 km/h (2 Bft)
07.11.2010 06:00 9,0 C 88 % 1000,8 hPa 0,0 l/m S-SW 0,00 h 0 W/m 4,4 km/h (1 Bft)
07.11.2010 07:00 8,5 C 89 % 1000,2 hPa 0,0 l/m N 0,00 h 12 W/m 0,9 km/h (0 Bft)
07.11.2010 08:00 8,4 C 90 % 1000,0 hPa 0,0 l/m SW 0,00 h 39 W/m 2,9 km/h (1 Bft)
07.11.2010 09:00 9,0 C 90 % 999,6 hPa 0,0 l/m SW 0,00 h 70 W/m 4,4 km/h (1 Bft)
07.11.2010 10:00 10,3 C 86 % 999,1 hPa 0,0 l/m SW 0,00 h 114 W/m 8,3 km/h (2 Bft)
07.11.2010 11:00 11,5 C 79 % 998,6 hPa 0,0 l/m W 0,00 h 115 W/m 13,8 km/h (3 Bft)
07.11.2010 12:00 10,8 C 80 % 998,1 hPa 0,0 l/m N 0,00 h 47 W/m 11,6 km/h (2 Bft)
07.11.2010 13:00 9,1 C 87 % 997,3 hPa 0,4 l/m N-NO 0,00 h 35 W/m 7,8 km/h (2 Bft)
07.11.2010 14:00 8,3 C 91 % 997,1 hPa 1,6 l/m N-NO 0,00 h 25 W/m 7,6 km/h (2 Bft)
07.11.2010 15:00 7,4 C 93 % 997,0 hPa 1,6 l/m N-NO 0,00 h 21 W/m 7,7 km/h (2 Bft)
07.11.2010 16:00 6,7 C 93 % 997,8 hPa 1,6 l/m W-NW 0,00 h 8 W/m 11,0 km/h (2 Bft)
07.11.2010 17:00 5,5 C 93 % 999,0 hPa 2,8 l/m W 0,00 h 0 W/m 16,5 km/h (3 Bft)
07.11.2010 18:00 4,8 C 94 % 999,3 hPa 0,6 l/m W-SW 0,00 h 0 W/m 13,6 km/h (3 Bft)
07.11.2010 19:00 4,5 C 94 % 999,4 hPa 0,2 l/m W-SW 0,00 h 0 W/m 13,8 km/h (3 Bft)
07.11.2010 20:00 4,7 C 95 % 999,1 hPa 0,0 l/m W-SW 0,00 h 0 W/m 12,5 km/h (3 Bft)
07.11.2010 21:00 4,8 C 95 % 998,6 hPa 0,0 l/m SW 0,00 h 0 W/m 9,9 km/h (2 Bft)
07.11.2010 22:00 4,8 C 95 % 998,1 hPa 0,0 l/m SW 0,00 h 0 W/m 9,3 km/h (2 Bft)
07.11.2010 23:00 4,6 C 95 % 997,4 hPa 0,0 l/m SW 0,00 h 0 W/m 10,3 km/h (2 Bft)
Min-Datum _ 02.11.10 06.11.10 07.11.10 - - - - 01.11.10
_ Min-Zeit 03:40 14:10 15:30 - - - - 00:00
Minimum _ 3,5 C 68 % 996,8 hPa - - - - 0,0 km/h (0 Bft)
Max-Datum _ 04.11.10 02.11.10 04.11.10 07.11.10 - 01.11.10 05.11.10 06.11.10
_ Max-Zeit 14:20 08:40 11:00 17:05 - 13:10 10:55 14:15
Maximum _ 16,3 C 99 % 1027,3 hPa 2,8 l/m - 0,08 h 613 W/m 38,6 km/h
W (5 Bft)
Durchschnitt _ 9,8 C 88 % 1015,5 hPa #8,8 l/m SW #7:10 h 103 W/m 11,0 km/h (2 Bft)